createdAt,value
2023-04-26T00:00:02.271Z,94.11
2023-04-26T00:02:54.599Z,94.30
2023-04-26T00:05:23.082Z,93.16
2023-04-26T00:07:51.472Z,95.44
2023-04-26T00:10:19.677Z,99.23
2023-04-26T00:12:47.724Z,96.80
2023-04-26T00:15:16.091Z,95.94
2023-04-26T00:17:44.358Z,96.16
2023-04-26T00:20:13.732Z,96.66
2023-04-26T00:22:41.920Z,95.97
2023-04-26T00:25:10.341Z,96.09
2023-04-26T00:27:38.443Z,97.19
2023-04-26T00:30:07.677Z,97.33
2023-04-26T00:32:35.866Z,97.35
2023-04-26T00:35:06.922Z,97.61
2023-04-26T00:37:35.149Z,96.58
2023-04-26T00:40:03.559Z,96.28
2023-04-26T00:42:31.857Z,96.56
2023-04-26T00:45:00.014Z,96.72
2023-04-26T00:47:30.080Z,96.77
2023-04-26T00:50:01.489Z,97.79
2023-04-26T00:52:31.869Z,97.58
2023-04-26T00:55:00.018Z,97.78
2023-04-26T00:57:28.979Z,96.91
2023-04-26T00:59:58.219Z,97.46
2023-04-26T01:02:27.671Z,97.27
2023-04-26T01:04:56.030Z,96.94
2023-04-26T01:07:24.169Z,96.30
2023-04-26T01:09:52.793Z,97.26
2023-04-26T01:12:24.629Z,97.09
2023-04-26T01:14:53.218Z,96.97
2023-04-26T01:17:21.350Z,97.09
2023-04-26T01:19:50.313Z,97.01
2023-04-26T01:22:19.018Z,96.53
2023-04-26T01:24:50.630Z,96.18
2023-04-26T01:27:18.764Z,96.47
2023-04-26T01:29:49.122Z,96.24
2023-04-26T01:32:17.426Z,96.93
2023-04-26T01:34:45.690Z,96.58
2023-04-26T01:37:13.902Z,96.61
2023-04-26T01:39:42.044Z,96.48
2023-04-26T01:42:10.275Z,96.70
2023-04-26T01:44:38.379Z,96.30
2023-04-26T01:47:06.699Z,96.13
2023-04-26T01:49:35.006Z,95.97
2023-04-26T01:52:04.388Z,96.06
2023-04-26T01:54:32.517Z,95.97
2023-04-26T01:57:02.833Z,95.96
2023-04-26T01:59:31.651Z,96.71
2023-04-26T02:02:00.468Z,96.38
2023-04-26T02:04:29.553Z,96.88
2023-04-26T02:06:57.651Z,97.19
2023-04-26T02:09:25.975Z,96.22
2023-04-26T02:11:54.155Z,95.70
2023-04-26T02:14:22.241Z,95.35
2023-04-26T02:16:52.051Z,95.29
2023-04-26T02:19:20.962Z,95.28
2023-04-26T02:21:53.095Z,95.95
2023-04-26T02:24:22.420Z,96.69
2023-04-26T02:26:51.981Z,96.40
2023-04-26T02:29:29.514Z,97.05
2023-04-26T02:32:09.050Z,97.42
2023-04-26T02:34:37.133Z,96.94
2023-04-26T02:37:05.768Z,96.70
2023-04-26T02:39:34.066Z,97.28
2023-04-26T02:42:02.393Z,96.97
2023-04-26T02:44:31.310Z,96.75
2023-04-26T02:46:59.832Z,96.57
2023-04-26T02:49:30.849Z,96.74
2023-04-26T02:51:59.100Z,96.11
2023-04-26T02:54:27.245Z,95.89
2023-04-26T02:56:55.509Z,95.48
2023-04-26T02:59:23.628Z,95.53
2023-04-26T03:01:51.756Z,95.46
2023-04-26T03:04:20.125Z,95.11
2023-04-26T03:06:48.364Z,95.20
2023-04-26T03:09:16.957Z,95.21
2023-04-26T03:11:45.861Z,95.16
2023-04-26T03:14:14.630Z,94.60
2023-04-26T03:16:44.755Z,94.66
2023-04-26T03:19:13.127Z,94.85
2023-04-26T03:21:41.655Z,94.33
2023-04-26T03:24:09.935Z,94.37
2023-04-26T03:26:38.090Z,94.19
2023-04-26T03:29:07.721Z,93.82
2023-04-26T03:31:36.076Z,93.42
2023-04-26T03:34:04.828Z,93.16
2023-04-26T03:36:33.929Z,93.17
2023-04-26T03:39:02.373Z,93.44
2023-04-26T03:41:31.154Z,93.47
2023-04-26T03:44:01.036Z,93.11
2023-04-26T03:46:29.728Z,94.19
2023-04-26T03:48:57.886Z,93.89
2023-04-26T03:51:28.442Z,92.28
2023-04-26T03:53:58.406Z,91.31
2023-04-26T03:56:26.989Z,90.87
2023-04-26T03:58:55.646Z,90.80
2023-04-26T04:01:24.975Z,90.32
2023-04-26T04:03:53.724Z,90.09
2023-04-26T04:06:22.067Z,90.52
2023-04-26T04:08:51.449Z,90.82
2023-04-26T04:11:20.479Z,91.06
2023-04-26T04:13:48.820Z,91.20
2023-04-26T04:16:17.345Z,90.96
2023-04-26T04:18:45.717Z,91.31
2023-04-26T04:21:13.867Z,91.17
2023-04-26T04:23:44.597Z,90.86
2023-04-26T04:26:14.266Z,90.88
2023-04-26T04:28:42.524Z,90.49
2023-04-26T04:31:10.698Z,90.59
2023-04-26T04:33:39.195Z,90.39
2023-04-26T04:36:08.623Z,90.53
2023-04-26T04:38:37.504Z,90.50
2023-04-26T04:41:08.701Z,90.09
2023-04-26T04:43:37.850Z,89.92
2023-04-26T04:46:07.132Z,89.87
2023-04-26T04:48:35.836Z,89.42
2023-04-26T04:51:04.003Z,88.83
2023-04-26T04:53:32.286Z,88.95
2023-04-26T04:56:00.666Z,89.35
2023-04-26T04:58:28.880Z,89.90
2023-04-26T05:01:01.508Z,89.95
2023-04-26T05:03:44.694Z,89.94
2023-04-26T05:06:12.966Z,89.71
2023-04-26T05:08:41.703Z,89.88
2023-04-26T05:11:10.574Z,90.27
2023-04-26T05:13:38.768Z,90.45
2023-04-26T05:16:07.535Z,90.12
2023-04-26T05:18:36.030Z,89.76
2023-04-26T05:21:04.825Z,89.86
2023-04-26T05:23:34.662Z,89.68
2023-04-26T05:26:06.886Z,89.79
2023-04-26T05:29:07.152Z,90.58
2023-04-26T05:31:46.258Z,90.54
2023-04-26T05:34:33.181Z,90.09
2023-04-26T05:37:01.627Z,90.74
2023-04-26T05:39:30.873Z,90.96
2023-04-26T05:41:59.050Z,91.51
2023-04-26T05:44:27.306Z,91.96
2023-04-26T05:46:55.585Z,92.28
2023-04-26T05:49:23.858Z,93.33
2023-04-26T05:51:52.233Z,91.23
2023-04-26T05:54:20.398Z,90.64
2023-04-26T05:56:49.569Z,90.62
2023-04-26T05:59:18.914Z,90.41
2023-04-26T06:01:47.063Z,90.41
2023-04-26T06:04:15.732Z,90.31
2023-04-26T06:06:51.338Z,90.59
2023-04-26T06:09:22.551Z,90.62
2023-04-26T06:11:50.735Z,90.39
2023-04-26T06:14:29.586Z,89.99
2023-04-26T06:17:01.963Z,90.19
2023-04-26T06:19:30.569Z,89.77
2023-04-26T06:21:58.666Z,89.34
2023-04-26T06:24:27.016Z,89.23
2023-04-26T06:26:55.227Z,88.86
2023-04-26T06:29:23.432Z,89.20
2023-04-26T06:31:54.640Z,88.57
2023-04-26T06:34:23.546Z,88.31
2023-04-26T06:36:51.857Z,88.32
2023-04-26T06:39:20.987Z,88.44
2023-04-26T06:41:51.065Z,87.76
2023-04-26T06:44:27.595Z,87.50
2023-04-26T06:47:01.642Z,87.81
2023-04-26T06:49:29.786Z,87.14
2023-04-26T06:51:58.016Z,87.14
2023-04-26T06:54:30.686Z,86.27
2023-04-26T06:57:00.112Z,86.67
2023-04-26T06:59:29.756Z,86.60
2023-04-26T07:01:57.952Z,86.47
2023-04-26T07:04:26.403Z,87.24
2023-04-26T07:06:54.692Z,87.40
2023-04-26T07:09:23.172Z,87.47
2023-04-26T07:11:52.915Z,87.96
2023-04-26T07:14:21.234Z,87.94
2023-04-26T07:16:49.525Z,88.71
2023-04-26T07:19:18.292Z,88.26
2023-04-26T07:21:46.618Z,88.68
2023-04-26T07:24:15.377Z,88.36
2023-04-26T07:26:43.861Z,88.38
2023-04-26T07:29:12.380Z,87.91
2023-04-26T07:31:40.709Z,87.78
2023-04-26T07:34:08.895Z,87.90
2023-04-26T07:36:37.189Z,88.32
2023-04-26T07:39:06.632Z,88.42
2023-04-26T07:41:34.750Z,88.51
2023-04-26T07:44:03.406Z,88.40
2023-04-26T07:46:34.236Z,87.63
2023-04-26T07:49:02.299Z,88.15
2023-04-26T07:51:30.404Z,88.51
2023-04-26T07:53:58.546Z,89.15
2023-04-26T07:56:26.757Z,89.72
2023-04-26T07:58:55.175Z,89.05
2023-04-26T08:01:23.582Z,88.69
2023-04-26T08:03:52.080Z,88.45
2023-04-26T08:06:20.840Z,88.15
2023-04-26T08:08:51.021Z,87.81
2023-04-26T08:11:19.430Z,88.17
2023-04-26T08:13:47.563Z,88.05
2023-04-26T08:16:16.077Z,87.34
2023-04-26T08:18:46.827Z,87.54
2023-04-26T08:21:15.303Z,87.51
2023-04-26T08:23:43.448Z,87.40
2023-04-26T08:26:11.951Z,87.51
2023-04-26T08:28:40.059Z,87.61
2023-04-26T08:31:08.461Z,88.53
2023-04-26T08:33:36.753Z,89.46
2023-04-26T08:36:05.543Z,88.86
2023-04-26T08:38:33.842Z,89.36
2023-04-26T08:41:04.516Z,90.55
2023-04-26T08:43:36.769Z,90.80
2023-04-26T08:46:09.518Z,90.30
2023-04-26T08:48:38.051Z,89.49
2023-04-26T08:51:11.626Z,89.36
2023-04-26T08:53:41.914Z,90.33
2023-04-26T08:56:11.964Z,90.66
2023-04-26T08:58:40.777Z,90.50
2023-04-26T09:01:10.527Z,90.88
2023-04-26T09:03:38.954Z,91.22
2023-04-26T09:06:07.864Z,90.20
2023-04-26T09:08:41.595Z,89.95
2023-04-26T09:11:09.663Z,89.62
2023-04-26T09:13:37.748Z,89.63
2023-04-26T09:16:06.342Z,89.76
2023-04-26T09:18:34.790Z,89.95
2023-04-26T09:21:04.240Z,89.48
2023-04-26T09:23:33.177Z,89.24
2023-04-26T09:26:22.473Z,88.06
2023-04-26T09:28:51.126Z,88.21
2023-04-26T09:31:40.403Z,87.46
2023-04-26T09:34:11.278Z,87.27
2023-04-26T09:36:59.574Z,87.76
2023-04-26T09:39:34.757Z,87.23
2023-04-26T09:42:04.825Z,87.08
2023-04-26T09:44:33.388Z,87.06
2023-04-26T09:47:04.476Z,86.57
2023-04-26T09:49:53.052Z,86.62
2023-04-26T09:52:22.504Z,85.65
2023-04-26T09:54:53.275Z,86.13
2023-04-26T09:57:22.526Z,85.75
2023-04-26T09:59:55.396Z,85.33
2023-04-26T10:02:26.755Z,85.27
2023-04-26T10:04:56.952Z,85.12
2023-04-26T10:07:27.265Z,84.92
2023-04-26T10:09:58.597Z,84.18
2023-04-26T10:12:27.697Z,84.08
2023-04-26T10:14:57.729Z,84.27
2023-04-26T10:17:25.987Z,84.27
2023-04-26T10:19:59.099Z,84.20
2023-04-26T10:22:33.827Z,84.09
2023-04-26T10:25:02.094Z,84.64
2023-04-26T10:27:46.951Z,84.03
2023-04-26T10:30:17.748Z,84.03
2023-04-26T10:32:53.397Z,84.43
2023-04-26T10:35:23.145Z,84.29
2023-04-26T10:38:00.530Z,84.56
2023-04-26T10:40:31.505Z,84.12
2023-04-26T10:43:08.834Z,83.98
2023-04-26T10:45:38.115Z,84.10
2023-04-26T10:48:28.786Z,83.94
2023-04-26T10:51:02.919Z,83.97
2023-04-26T10:53:49.245Z,84.00
2023-04-26T10:56:23.799Z,83.42
2023-04-26T11:01:44.175Z,83.59
2023-04-26T11:04:13.354Z,84.12
2023-04-26T11:06:55.817Z,85.27
2023-04-26T11:09:39.986Z,84.95
2023-04-26T11:12:13.837Z,84.65
2023-04-26T11:14:43.418Z,83.43
2023-04-26T11:17:13.276Z,83.12
2023-04-26T11:19:42.101Z,82.81
2023-04-26T11:22:11.081Z,82.18
2023-04-26T11:24:39.265Z,81.28
2023-04-26T11:27:11.676Z,81.13
2023-04-26T11:29:40.066Z,80.07
2023-04-26T11:32:08.442Z,79.84
2023-04-26T11:34:39.406Z,79.83
2023-04-26T11:37:08.275Z,79.16
2023-04-26T11:39:37.441Z,79.80
2023-04-26T11:42:13.001Z,79.76
2023-04-26T11:44:41.500Z,80.86
2023-04-26T11:47:10.534Z,81.07
2023-04-26T11:49:39.182Z,81.09
2023-04-26T11:52:08.938Z,81.60
2023-04-26T11:54:38.151Z,81.38
2023-04-26T11:57:18.280Z,82.06
2023-04-26T11:59:47.062Z,80.98
2023-04-26T12:02:15.323Z,79.87
2023-04-26T12:04:45.056Z,79.39
2023-04-26T12:07:19.278Z,78.09
2023-04-26T12:09:47.537Z,77.86
2023-04-26T12:12:15.669Z,77.58
2023-04-26T12:14:45.613Z,76.91
2023-04-26T12:17:15.949Z,77.26
2023-04-26T12:19:44.137Z,77.22
2023-04-26T12:22:12.476Z,75.96
2023-04-26T12:24:43.232Z,75.21
2023-04-26T12:27:21.067Z,74.86
2023-04-26T12:29:49.094Z,74.88
2023-04-26T12:32:17.300Z,74.26
2023-04-26T12:34:45.414Z,75.09
2023-04-26T12:37:13.919Z,75.93
2023-04-26T12:39:42.228Z,76.05
2023-04-26T12:42:10.358Z,75.48
2023-04-26T12:44:38.430Z,75.80
2023-04-26T12:47:07.015Z,75.67
2023-04-26T12:49:35.704Z,75.42
2023-04-26T12:52:04.525Z,75.14
2023-04-26T12:54:32.622Z,76.00
2023-04-26T12:57:01.031Z,75.90
2023-04-26T12:59:29.187Z,75.71
2023-04-26T13:01:57.313Z,75.96
2023-04-26T13:04:25.847Z,75.44
2023-04-26T13:06:54.068Z,75.17
2023-04-26T13:09:22.675Z,75.47
2023-04-26T13:11:51.547Z,75.86
2023-04-26T13:14:19.595Z,75.32
2023-04-26T13:16:47.738Z,75.49
2023-04-26T13:19:16.207Z,74.97
2023-04-26T13:21:44.312Z,75.73
2023-04-26T13:24:12.457Z,75.11
2023-04-26T13:26:40.810Z,75.42
2023-04-26T13:29:08.895Z,74.55
2023-04-26T13:31:37.108Z,74.75
2023-04-26T13:34:05.732Z,74.76
2023-04-26T13:36:34.470Z,74.41
2023-04-26T13:39:05.041Z,74.67
2023-04-26T13:41:35.333Z,73.18
2023-04-26T13:44:04.701Z,72.64
2023-04-26T13:46:33.032Z,72.60
2023-04-26T13:49:01.325Z,73.00
2023-04-26T13:51:30.901Z,72.89
2023-04-26T13:53:59.014Z,71.98
2023-04-26T13:56:27.190Z,72.80
2023-04-26T13:59:00.345Z,73.17
2023-04-26T14:01:28.735Z,73.48
2023-04-26T14:03:57.275Z,73.59
2023-04-26T14:06:25.640Z,73.78
2023-04-26T14:08:53.769Z,74.03
2023-04-26T14:11:21.917Z,74.16
2023-04-26T14:13:52.671Z,74.15
2023-04-26T14:16:26.190Z,74.18
2023-04-26T14:18:54.600Z,74.54
2023-04-26T14:21:22.767Z,74.01
2023-04-26T14:23:51.491Z,73.87
2023-04-26T14:26:21.089Z,74.16
2023-04-26T14:28:49.229Z,73.92
2023-04-26T14:31:18.503Z,72.74
2023-04-26T14:33:46.710Z,72.49
2023-04-26T14:36:15.661Z,72.25
2023-04-26T14:38:46.226Z,72.66
2023-04-26T14:41:18.458Z,72.77
2023-04-26T14:43:46.880Z,72.91
2023-04-26T14:46:15.347Z,73.38
2023-04-26T14:48:44.457Z,73.52
2023-04-26T14:51:12.790Z,73.10
2023-04-26T14:53:40.958Z,72.23
2023-04-26T14:56:09.620Z,71.66
2023-04-26T14:58:37.751Z,71.65
2023-04-26T15:01:05.981Z,71.18
2023-04-26T15:03:34.508Z,70.87
2023-04-26T15:06:02.770Z,70.02
2023-04-26T15:08:30.944Z,69.25
2023-04-26T15:10:59.105Z,69.34
2023-04-26T15:13:27.606Z,69.92
2023-04-26T15:15:55.945Z,70.55
2023-04-26T15:18:24.081Z,71.10
2023-04-26T15:20:52.263Z,70.93
2023-04-26T15:23:20.467Z,71.47
2023-04-26T15:25:48.541Z,71.38
2023-04-26T15:28:17.777Z,70.34
2023-04-26T15:30:46.518Z,69.90
2023-04-26T15:33:17.035Z,69.69
2023-04-26T15:35:45.475Z,68.95
2023-04-26T15:38:13.547Z,68.95
2023-04-26T15:40:41.647Z,69.61
2023-04-26T15:43:09.728Z,69.90
2023-04-26T15:45:37.953Z,71.03
2023-04-26T15:48:06.501Z,71.38
2023-04-26T15:50:34.750Z,71.88
2023-04-26T15:53:02.900Z,72.44
2023-04-26T15:55:33.961Z,73.07
2023-04-26T15:58:02.388Z,73.36
2023-04-26T16:00:31.825Z,74.12
2023-04-26T16:03:00.111Z,74.54
2023-04-26T16:05:28.453Z,74.40
2023-04-26T16:07:56.502Z,74.55
2023-04-26T16:10:24.592Z,74.63
2023-04-26T16:12:52.716Z,74.42
2023-04-26T16:15:20.889Z,74.30
2023-04-26T16:17:49.138Z,74.82
2023-04-26T16:20:17.626Z,74.62
2023-04-26T16:22:45.730Z,74.93
2023-04-26T16:25:13.865Z,74.79
2023-04-26T16:27:41.950Z,74.58
2023-04-26T16:30:10.387Z,74.84
2023-04-26T16:32:38.652Z,74.52
2023-04-26T16:35:09.009Z,73.32
2023-04-26T16:37:39.437Z,73.38
2023-04-26T16:40:08.319Z,72.57
2023-04-26T16:42:36.426Z,71.76
2023-04-26T16:45:05.159Z,71.75
2023-04-26T16:47:34.384Z,71.56
2023-04-26T16:50:04.601Z,71.83
2023-04-26T16:52:32.847Z,71.91
2023-04-26T16:55:02.340Z,72.03
2023-04-26T16:57:30.411Z,72.24
2023-04-26T16:59:58.709Z,72.52
2023-04-26T17:02:27.021Z,72.79
2023-04-26T17:04:55.494Z,72.76
2023-04-26T17:07:23.833Z,72.87
2023-04-26T17:09:57.513Z,73.25
2023-04-26T17:12:25.758Z,73.63
2023-04-26T17:14:53.831Z,73.54
2023-04-26T17:17:21.912Z,73.98
2023-04-26T17:19:50.159Z,74.20
2023-04-26T17:22:19.307Z,74.45
2023-04-26T17:24:47.450Z,74.57
2023-04-26T17:27:15.670Z,74.97
2023-04-26T17:29:44.436Z,74.87
2023-04-26T17:32:12.786Z,74.81
2023-04-26T17:34:40.935Z,75.01
2023-04-26T17:37:09.056Z,75.80
2023-04-26T17:39:37.201Z,76.15
2023-04-26T17:42:05.619Z,76.33
2023-04-26T17:44:33.679Z,76.86
2023-04-26T17:47:01.755Z,76.93
2023-04-26T17:49:29.985Z,76.45
2023-04-26T17:51:58.068Z,77.42
2023-04-26T17:54:26.261Z,78.25
2023-04-26T17:56:54.370Z,78.11
2023-04-26T17:59:22.474Z,78.01
2023-04-26T18:01:50.867Z,77.65
2023-04-26T18:04:19.411Z,78.33
2023-04-26T18:06:48.066Z,78.56
2023-04-26T18:09:16.574Z,78.64
2023-04-26T18:11:47.983Z,78.49
2023-04-26T18:14:16.395Z,78.36
2023-04-26T18:16:44.614Z,78.24
2023-04-26T18:19:12.892Z,78.13
2023-04-26T18:21:41.168Z,77.95
2023-04-26T18:24:09.225Z,77.96
2023-04-26T18:26:39.215Z,78.00
2023-04-26T18:29:09.212Z,77.55
2023-04-26T18:31:37.724Z,77.41
2023-04-26T18:34:07.019Z,77.23
2023-04-26T18:36:36.164Z,77.11
2023-04-26T18:39:04.794Z,76.75
2023-04-26T18:41:32.934Z,76.87
2023-04-26T18:44:01.189Z,76.63
2023-04-26T18:46:29.358Z,76.53
2023-04-26T18:48:57.911Z,76.46
2023-04-26T18:51:26.856Z,76.43
2023-04-26T18:53:54.991Z,76.72
2023-04-26T18:56:23.767Z,77.22
2023-04-26T18:58:51.962Z,77.13
2023-04-26T19:01:20.494Z,77.13
2023-04-26T19:03:49.250Z,77.28
2023-04-26T19:06:17.612Z,77.24
2023-04-26T19:08:46.083Z,76.95
2023-04-26T19:11:14.354Z,76.94
2023-04-26T19:13:43.003Z,77.02
2023-04-26T19:16:11.276Z,76.66
2023-04-26T19:18:44.279Z,77.25
2023-04-26T19:21:12.556Z,77.52
2023-04-26T19:23:40.614Z,77.15
2023-04-26T19:26:12.369Z,77.37
2023-04-26T19:28:41.114Z,77.27
2023-04-26T19:31:09.249Z,77.08
2023-04-26T19:33:38.655Z,77.09
2023-04-26T19:36:07.208Z,77.34
2023-04-26T19:38:35.476Z,77.34
2023-04-26T19:41:03.651Z,77.81
2023-04-26T19:43:31.747Z,77.38
2023-04-26T19:45:59.936Z,77.54
2023-04-26T19:48:28.099Z,77.13
2023-04-26T19:50:56.326Z,77.48
2023-04-26T19:53:24.415Z,77.24
2023-04-26T19:55:52.537Z,77.35
2023-04-26T19:58:20.890Z,77.75
2023-04-26T20:00:49.050Z,77.45
2023-04-26T20:03:17.722Z,77.30
2023-04-26T20:05:46.035Z,77.38
2023-04-26T20:08:14.194Z,77.50
2023-04-26T20:10:42.417Z,77.78
2023-04-26T20:13:10.877Z,77.85
2023-04-26T20:15:38.973Z,77.97
2023-04-26T20:18:07.405Z,77.98
2023-04-26T20:20:35.880Z,78.06
2023-04-26T20:23:04.434Z,77.94
2023-04-26T20:25:32.588Z,78.22
2023-04-26T20:28:02.426Z,77.88
2023-04-26T20:30:33.889Z,77.85
2023-04-26T20:33:02.425Z,78.12
2023-04-26T20:35:30.540Z,78.20
2023-04-26T20:37:58.644Z,78.00
2023-04-26T20:40:26.882Z,78.33
2023-04-26T20:42:55.043Z,78.25
2023-04-26T20:45:23.169Z,78.29
2023-04-26T20:47:51.568Z,77.87
2023-04-26T20:50:19.802Z,77.77
2023-04-26T20:52:47.927Z,78.61
2023-04-26T20:55:17.105Z,78.67
2023-04-26T20:57:45.242Z,78.88
2023-04-26T21:00:13.860Z,78.68
2023-04-26T21:02:42.081Z,78.63
2023-04-26T21:05:10.918Z,78.15
2023-04-26T21:07:39.045Z,79.19
2023-04-26T21:10:08.013Z,80.41
2023-04-26T21:12:36.311Z,79.85
2023-04-26T21:15:05.237Z,79.71
2023-04-26T21:17:33.475Z,80.40
2023-04-26T21:20:01.662Z,79.45
2023-04-26T21:22:29.772Z,80.23
2023-04-26T21:24:57.897Z,80.74
2023-04-26T21:27:26.015Z,80.43
2023-04-26T21:29:54.113Z,80.56
2023-04-26T21:32:22.217Z,81.52
2023-04-26T21:34:50.295Z,81.15
2023-04-26T21:37:18.386Z,82.02
2023-04-26T21:39:46.706Z,82.33
2023-04-26T21:42:15.670Z,82.46
2023-04-26T21:44:43.888Z,81.96
2023-04-26T21:47:12.113Z,82.58
2023-04-26T21:49:40.424Z,82.14
2023-04-26T21:52:08.496Z,81.82
2023-04-26T21:54:36.931Z,82.70
2023-04-26T21:57:07.832Z,82.14
2023-04-26T21:59:36.676Z,82.24
2023-04-26T22:02:04.800Z,82.07
2023-04-26T22:04:32.906Z,82.83
2023-04-26T22:07:01.138Z,82.36
2023-04-26T22:09:29.262Z,82.59
2023-04-26T22:11:57.458Z,82.63
2023-04-26T22:14:25.775Z,82.39
2023-04-26T22:16:54.218Z,82.10
2023-04-26T22:19:22.330Z,82.01
2023-04-26T22:21:50.582Z,81.93
2023-04-26T22:24:18.692Z,81.98
2023-04-26T22:26:46.769Z,82.09
2023-04-26T22:29:14.914Z,81.92
2023-04-26T22:31:43.191Z,81.94
2023-04-26T22:34:14.210Z,81.94
2023-04-26T22:36:42.298Z,81.72
2023-04-26T22:39:10.613Z,81.85
2023-04-26T22:41:39.339Z,81.86
2023-04-26T22:44:07.843Z,81.86
2023-04-26T22:46:35.942Z,81.79
2023-04-26T22:49:04.174Z,81.71
2023-04-26T22:51:32.670Z,81.14
2023-04-26T22:54:01.146Z,81.12
2023-04-26T22:56:29.476Z,80.84
2023-04-26T22:58:57.531Z,81.24
2023-04-26T23:01:25.724Z,81.60
2023-04-26T23:03:53.935Z,81.24
2023-04-26T23:06:22.038Z,81.04
2023-04-26T23:08:50.096Z,81.40
2023-04-26T23:11:19.086Z,81.25
2023-04-26T23:13:49.303Z,82.17
2023-04-26T23:16:18.135Z,82.04
2023-04-26T23:18:46.658Z,81.89
2023-04-26T23:21:15.083Z,82.03
2023-04-26T23:23:43.267Z,81.28
2023-04-26T23:26:11.379Z,81.66
2023-04-26T23:28:39.534Z,81.92
2023-04-26T23:31:07.694Z,81.84
2023-04-26T23:33:36.231Z,82.41
2023-04-26T23:36:04.549Z,81.74
2023-04-26T23:38:32.653Z,81.66
2023-04-26T23:41:00.934Z,82.81
2023-04-26T23:43:29.250Z,83.37
2023-04-26T23:45:57.398Z,83.65
2023-04-26T23:48:25.530Z,84.07
2023-04-26T23:50:53.632Z,84.77
2023-04-26T23:53:21.871Z,84.98
2023-04-26T23:55:50.036Z,86.43
2023-04-26T23:58:18.156Z,85.00
